createdAt,value
2022-10-31T00:01:20.681Z,10.20
2022-10-31T00:03:48.537Z,10.30
2022-10-31T00:06:15.864Z,10.10
2022-10-31T00:08:42.527Z,10.00
2022-10-31T00:11:12.572Z,10.80
2022-10-31T00:13:39.348Z,10.70
2022-10-31T00:16:06.596Z,10.10
2022-10-31T00:18:33.285Z,10.30
2022-10-31T00:21:03.767Z,10.80
2022-10-31T00:23:30.795Z,10.10
2022-10-31T00:26:05.223Z,10.00
2022-10-31T00:28:32.856Z,10.00
2022-10-31T00:31:03.450Z,10.20
2022-10-31T00:33:30.532Z,10.10
2022-10-31T00:35:57.701Z,10.00
2022-10-31T00:38:24.478Z,10.10
2022-10-31T00:40:51.186Z,10.00
2022-10-31T00:43:18.124Z,10.00
2022-10-31T00:45:45.273Z,10.20
2022-10-31T00:48:12.641Z,10.60
2022-10-31T00:50:40.095Z,10.00
2022-10-31T00:53:07.109Z,9.90
2022-10-31T00:55:33.821Z,10.50
2022-10-31T00:58:01.278Z,10.20
2022-10-31T01:00:28.380Z,10.10
2022-10-31T01:02:55.092Z,10.00
2022-10-31T01:05:21.939Z,10.00
2022-10-31T01:07:48.855Z,10.10
2022-10-31T01:10:16.080Z,10.90
2022-10-31T01:12:46.006Z,11.00
2022-10-31T01:15:15.095Z,10.10
2022-10-31T01:17:41.790Z,10.00
2022-10-31T01:20:10.483Z,9.70
2022-10-31T01:22:37.185Z,9.90
2022-10-31T01:25:04.407Z,9.90
2022-10-31T01:27:32.681Z,10.10
2022-10-31T01:29:59.364Z,10.10
2022-10-31T01:32:26.209Z,10.60
2022-10-31T01:34:52.920Z,10.50
2022-10-31T01:37:19.639Z,9.90
2022-10-31T01:39:46.378Z,9.90
2022-10-31T01:42:22.457Z,9.90
2022-10-31T01:44:59.417Z,10.10
2022-10-31T01:47:36.957Z,10.10
2022-10-31T01:50:07.467Z,9.90
2022-10-31T01:52:40.238Z,10.00
2022-10-31T01:55:16.589Z,10.00
2022-10-31T01:57:47.784Z,10.10
2022-10-31T02:00:15.134Z,10.30
2022-10-31T02:02:43.266Z,10.10
2022-10-31T02:05:15.286Z,10.70
2022-10-31T02:07:54.266Z,10.40
2022-10-31T02:10:23.503Z,10.00
2022-10-31T02:12:54.499Z,9.90
2022-10-31T02:15:21.273Z,10.10
2022-10-31T02:17:48.484Z,9.80
2022-10-31T02:20:25.001Z,9.90
2022-10-31T02:22:57.846Z,9.90
2022-10-31T02:25:39.539Z,9.90
2022-10-31T02:28:26.353Z,9.80
2022-10-31T02:31:21.641Z,9.70
2022-10-31T02:34:03.891Z,9.70
2022-10-31T02:37:02.581Z,9.60
2022-10-31T02:39:57.549Z,9.60
2022-10-31T02:42:35.154Z,9.60
2022-10-31T02:45:12.784Z,9.60
2022-10-31T02:47:40.005Z,9.50
2022-10-31T02:50:31.943Z,9.50
2022-10-31T02:52:58.692Z,9.40
2022-10-31T02:55:28.707Z,9.40
2022-10-31T02:57:59.975Z,9.40
2022-10-31T03:00:27.222Z,9.90
2022-10-31T03:03:15.799Z,9.50
2022-10-31T03:05:56.108Z,9.70
2022-10-31T03:08:36.768Z,9.60
2022-10-31T03:11:06.489Z,9.70
2022-10-31T03:13:39.035Z,9.80
2022-10-31T03:16:30.008Z,9.80
2022-10-31T03:19:40.002Z,9.90
2022-10-31T03:22:16.853Z,9.80
2022-10-31T03:24:45.068Z,9.60
2022-10-31T03:27:16.021Z,9.90
2022-10-31T03:29:45.297Z,9.60
2022-10-31T03:32:27.174Z,9.50
2022-10-31T03:34:58.166Z,9.60
2022-10-31T03:37:28.241Z,9.70
2022-10-31T03:39:59.678Z,9.70
2022-10-31T03:42:29.499Z,9.60
2022-10-31T03:45:28.064Z,9.40
2022-10-31T03:47:56.212Z,9.50
2022-10-31T03:50:28.946Z,9.20
2022-10-31T03:53:00.491Z,9.20
2022-10-31T03:55:43.085Z,9.40
2022-10-31T03:58:16.294Z,9.40
2022-10-31T04:00:46.901Z,9.30
2022-10-31T04:03:46.610Z,9.50
2022-10-31T04:06:16.907Z,9.70
2022-10-31T04:08:49.054Z,9.70
2022-10-31T04:11:17.665Z,9.60
2022-10-31T04:13:46.109Z,9.70
2022-10-31T04:16:17.040Z,10.10
2022-10-31T04:18:44.427Z,9.50
2022-10-31T04:21:11.254Z,9.50
2022-10-31T04:23:38.043Z,9.60
2022-10-31T04:26:04.966Z,9.50
2022-10-31T04:28:32.401Z,9.50
2022-10-31T04:30:59.205Z,10.00
2022-10-31T04:33:25.982Z,9.30
2022-10-31T04:35:52.897Z,9.30
2022-10-31T04:38:19.682Z,9.30
2022-10-31T04:40:46.936Z,9.30
2022-10-31T04:43:13.760Z,9.10
2022-10-31T04:45:40.746Z,9.80
2022-10-31T04:48:07.446Z,9.20
2022-10-31T04:50:34.241Z,9.40
2022-10-31T04:53:00.939Z,9.00
2022-10-31T04:55:27.734Z,8.90
2022-10-31T04:57:54.511Z,9.70
2022-10-31T05:00:22.683Z,9.00
2022-10-31T05:02:50.213Z,9.20
2022-10-31T05:05:19.675Z,9.30
2022-10-31T05:07:48.328Z,9.20
2022-10-31T05:10:21.365Z,9.10
2022-10-31T05:12:59.940Z,9.20
2022-10-31T05:15:28.612Z,9.20
2022-10-31T05:17:56.034Z,9.30
2022-10-31T05:20:25.747Z,9.10
2022-10-31T05:22:55.257Z,9.10
2022-10-31T05:25:24.585Z,10.20
2022-10-31T05:27:52.365Z,9.10
2022-10-31T05:30:28.009Z,9.80
2022-10-31T05:32:54.913Z,9.20
2022-10-31T05:35:33.076Z,9.00
2022-10-31T05:38:00.208Z,9.00
2022-10-31T05:40:28.149Z,9.10
2022-10-31T05:42:56.369Z,9.00
2022-10-31T05:45:24.050Z,9.20
2022-10-31T05:47:59.351Z,9.20
2022-10-31T05:50:29.499Z,9.20
2022-10-31T05:53:01.296Z,9.20
2022-10-31T05:55:28.744Z,8.50
2022-10-31T05:57:56.028Z,8.70
2022-10-31T06:00:23.523Z,8.90
2022-10-31T06:02:50.515Z,8.80
2022-10-31T06:05:17.765Z,8.50
2022-10-31T06:07:44.509Z,8.40
2022-10-31T06:10:11.729Z,8.40
2022-10-31T06:12:38.804Z,8.70
2022-10-31T06:15:09.907Z,8.70
2022-10-31T06:17:37.394Z,9.00
2022-10-31T06:20:05.209Z,9.10
2022-10-31T06:22:32.136Z,9.20
2022-10-31T06:24:58.905Z,9.10
2022-10-31T06:27:26.290Z,8.90
2022-10-31T06:29:53.083Z,9.80
2022-10-31T06:32:20.077Z,9.10
2022-10-31T06:34:49.242Z,9.30
2022-10-31T06:37:16.856Z,9.70
2022-10-31T06:39:43.624Z,9.20
2022-10-31T06:42:10.539Z,9.60
2022-10-31T06:44:37.214Z,9.20
2022-10-31T06:47:03.945Z,9.60
2022-10-31T06:49:30.667Z,9.60
2022-10-31T06:51:57.392Z,9.60
2022-10-31T06:54:24.136Z,9.80
2022-10-31T06:56:51.081Z,10.30
2022-10-31T06:59:17.858Z,9.60
2022-10-31T07:01:44.885Z,9.80
2022-10-31T07:04:12.430Z,9.60
2022-10-31T07:06:39.439Z,9.80
2022-10-31T07:09:06.456Z,9.90
2022-10-31T07:11:33.516Z,10.00
2022-10-31T07:14:00.298Z,9.60
2022-10-31T07:16:27.203Z,9.70
2022-10-31T07:18:53.932Z,9.60
2022-10-31T07:21:20.654Z,9.40
2022-10-31T07:23:50.431Z,9.60
2022-10-31T07:26:17.345Z,9.40
2022-10-31T07:28:44.082Z,9.70
2022-10-31T07:31:10.877Z,10.30
2022-10-31T07:33:37.603Z,10.40
2022-10-31T07:36:04.617Z,10.00
2022-10-31T07:38:31.366Z,10.00
2022-10-31T07:40:58.300Z,10.40
2022-10-31T07:43:25.176Z,10.20
2022-10-31T07:45:53.415Z,9.90
2022-10-31T07:48:20.641Z,10.00
2022-10-31T07:50:47.662Z,10.50
2022-10-31T07:53:15.565Z,10.70
2022-10-31T07:55:42.885Z,10.50
2022-10-31T07:58:12.425Z,10.20
2022-10-31T08:00:40.900Z,10.20
2022-10-31T08:03:13.261Z,10.80
2022-10-31T08:05:42.019Z,10.60
2022-10-31T08:08:09.579Z,11.10
2022-10-31T08:10:37.552Z,10.80
2022-10-31T08:13:08.172Z,10.90
2022-10-31T08:15:38.917Z,10.40
2022-10-31T08:18:06.614Z,10.50
2022-10-31T08:20:33.533Z,10.90
2022-10-31T08:23:02.337Z,10.50
2022-10-31T08:25:35.274Z,10.40
2022-10-31T08:28:05.728Z,10.50
2022-10-31T08:30:34.678Z,10.60
2022-10-31T08:33:13.842Z,10.70
2022-10-31T08:35:41.194Z,11.00
2022-10-31T08:38:10.442Z,11.20
2022-10-31T08:40:38.005Z,11.20
2022-10-31T08:43:14.132Z,11.30
2022-10-31T08:45:41.380Z,11.30
2022-10-31T08:48:11.548Z,11.80
2022-10-31T08:50:38.644Z,11.70
2022-10-31T08:53:10.019Z,11.70
2022-10-31T08:55:37.990Z,12.30
2022-10-31T08:58:06.963Z,12.60
2022-10-31T09:00:35.353Z,12.50
2022-10-31T09:03:08.281Z,12.20
2022-10-31T09:05:35.521Z,12.30
2022-10-31T09:08:04.944Z,12.40
2022-10-31T09:10:33.840Z,12.40
2022-10-31T09:13:03.053Z,12.60
2022-10-31T09:15:29.842Z,13.30
2022-10-31T09:17:56.662Z,12.50
2022-10-31T09:20:23.526Z,12.60
2022-10-31T09:22:59.965Z,12.90
2022-10-31T09:25:27.600Z,13.10
2022-10-31T09:28:02.435Z,12.90
2022-10-31T09:30:31.443Z,13.10
2022-10-31T09:33:03.775Z,13.20
2022-10-31T09:35:30.876Z,13.40
2022-10-31T09:38:06.220Z,13.70
2022-10-31T09:40:35.953Z,13.90
2022-10-31T09:43:08.951Z,14.00
2022-10-31T09:45:47.668Z,13.90
2022-10-31T09:48:29.063Z,14.00
2022-10-31T09:51:04.128Z,14.30
2022-10-31T09:53:51.462Z,14.20
2022-10-31T09:56:23.791Z,14.40
2022-10-31T09:58:59.211Z,14.50
2022-10-31T10:02:01.452Z,14.80
2022-10-31T10:05:05.320Z,14.70
2022-10-31T10:08:01.116Z,14.80
2022-10-31T10:11:00.872Z,14.90
2022-10-31T10:13:30.386Z,14.90
2022-10-31T10:16:04.913Z,14.90
2022-10-31T10:18:46.874Z,14.90
2022-10-31T10:21:25.704Z,14.90
2022-10-31T10:24:08.682Z,15.10
2022-10-31T10:26:43.788Z,15.40
2022-10-31T10:29:33.940Z,15.50
2022-10-31T10:32:06.530Z,15.70
2022-10-31T10:34:46.640Z,15.70
2022-10-31T10:37:25.325Z,15.90
2022-10-31T10:39:57.472Z,16.00
2022-10-31T10:42:46.350Z,16.20
2022-10-31T10:45:37.557Z,16.30
2022-10-31T10:48:27.636Z,16.20
2022-10-31T10:50:54.349Z,16.10
2022-10-31T10:53:33.615Z,16.10
2022-10-31T10:56:32.964Z,16.50
2022-10-31T10:58:59.775Z,16.80
2022-10-31T11:01:26.686Z,17.50
2022-10-31T11:03:53.420Z,17.40
2022-10-31T11:06:26.347Z,17.60
2022-10-31T11:08:53.955Z,17.50
2022-10-31T11:11:26.785Z,17.60
2022-10-31T11:14:14.378Z,17.50
2022-10-31T11:16:45.770Z,17.30
2022-10-31T11:19:19.943Z,17.30
2022-10-31T11:21:53.890Z,17.30
2022-10-31T11:24:22.700Z,17.40
2022-10-31T11:26:51.424Z,17.60
2022-10-31T11:29:23.522Z,17.60
2022-10-31T11:31:54.512Z,17.70
2022-10-31T11:34:41.480Z,17.60
2022-10-31T11:37:18.091Z,17.60
2022-10-31T11:39:54.266Z,17.60
2022-10-31T11:42:27.980Z,17.70
2022-10-31T11:44:56.390Z,17.60
2022-10-31T11:47:33.545Z,17.60
2022-10-31T11:50:09.469Z,17.60
2022-10-31T11:52:40.954Z,17.60
2022-10-31T11:55:13.661Z,17.50
2022-10-31T11:57:48.978Z,17.50
2022-10-31T12:03:22.940Z,17.60
2022-10-31T12:06:00.176Z,17.50
2022-10-31T12:08:32.581Z,17.40
2022-10-31T12:11:31.361Z,17.30
2022-10-31T12:14:03.878Z,17.00
2022-10-31T12:17:17.944Z,17.00
2022-10-31T12:20:09.545Z,16.80
2022-10-31T12:23:06.333Z,16.90
2022-10-31T12:25:59.143Z,16.80
2022-10-31T12:28:55.367Z,16.90
2022-10-31T12:31:39.538Z,16.90
2022-10-31T12:34:21.224Z,16.80
2022-10-31T12:37:01.071Z,16.70
2022-10-31T12:39:30.782Z,16.80
2022-10-31T12:42:02.364Z,16.90
2022-10-31T12:45:09.027Z,16.80
2022-10-31T12:48:02.662Z,16.80
2022-10-31T12:51:00.200Z,16.80
2022-10-31T12:53:40.781Z,16.80
2022-10-31T12:56:20.612Z,16.80
2022-10-31T12:58:50.381Z,16.90
2022-10-31T13:01:19.542Z,16.90
2022-10-31T13:04:00.182Z,17.00
2022-10-31T13:06:34.254Z,17.10
2022-10-31T13:09:13.077Z,17.10
2022-10-31T13:11:48.044Z,17.20
2022-10-31T13:14:44.138Z,17.30
2022-10-31T13:17:35.226Z,17.40
2022-10-31T13:20:30.231Z,17.40
2022-10-31T13:23:30.089Z,17.70
2022-10-31T13:26:09.964Z,17.70
2022-10-31T13:28:46.176Z,17.70
2022-10-31T13:31:14.910Z,17.70
2022-10-31T13:33:50.020Z,17.70
2022-10-31T13:36:35.213Z,17.80
2022-10-31T13:39:30.833Z,18.40
2022-10-31T13:42:15.063Z,19.30
2022-10-31T13:44:41.967Z,19.90
2022-10-31T13:47:24.908Z,20.50
2022-10-31T13:49:52.050Z,20.90
2022-10-31T13:52:28.182Z,20.50
2022-10-31T13:54:58.413Z,20.00
2022-10-31T13:57:44.049Z,19.90
2022-10-31T14:00:11.626Z,19.70
2022-10-31T14:02:38.555Z,19.60
2022-10-31T14:05:19.715Z,19.50
2022-10-31T14:07:47.743Z,19.30
2022-10-31T14:10:36.201Z,19.20
2022-10-31T14:13:16.693Z,19.10
2022-10-31T14:15:57.642Z,19.30
2022-10-31T14:18:35.791Z,19.40
2022-10-31T14:21:02.572Z,19.20
2022-10-31T14:23:33.786Z,19.20
2022-10-31T14:26:27.304Z,19.20
2022-10-31T14:28:56.465Z,19.20
2022-10-31T14:31:26.148Z,19.10
2022-10-31T14:33:53.668Z,19.20
2022-10-31T14:36:31.161Z,19.10
2022-10-31T14:39:28.526Z,18.80
2022-10-31T14:42:11.876Z,18.70
2022-10-31T14:44:44.315Z,18.50
2022-10-31T14:47:26.063Z,18.50
2022-10-31T14:50:21.848Z,18.50
2022-10-31T14:52:52.155Z,18.30
2022-10-31T14:55:19.804Z,18.00
2022-10-31T14:57:58.672Z,17.80
2022-10-31T15:00:28.810Z,17.60
2022-10-31T15:03:15.981Z,17.40
2022-10-31T15:05:54.718Z,17.30
2022-10-31T15:08:38.999Z,17.20
2022-10-31T15:11:14.891Z,17.20
2022-10-31T15:13:46.925Z,17.10
2022-10-31T15:16:16.932Z,17.00
2022-10-31T15:19:01.536Z,17.00
2022-10-31T15:21:29.356Z,17.00
2022-10-31T15:23:58.818Z,16.90
2022-10-31T15:26:32.227Z,16.80
2022-10-31T15:29:05.204Z,16.70
2022-10-31T15:31:32.865Z,16.60
2022-10-31T15:36:42.858Z,16.50
2022-10-31T15:39:12.949Z,16.40
2022-10-31T15:41:50.316Z,16.30
2022-10-31T15:44:28.964Z,16.10
2022-10-31T15:47:17.262Z,16.10
2022-10-31T15:49:55.667Z,15.90
2022-10-31T15:52:46.992Z,16.10
2022-10-31T15:55:22.672Z,15.60
2022-10-31T15:57:59.185Z,15.50
2022-10-31T16:00:35.539Z,15.30
2022-10-31T16:03:23.822Z,15.20
2022-10-31T16:05:56.060Z,15.00
2022-10-31T16:08:32.074Z,14.80
2022-10-31T16:11:07.832Z,14.80
2022-10-31T16:13:38.202Z,14.60
2022-10-31T16:16:34.255Z,14.50
2022-10-31T16:19:04.654Z,14.40
2022-10-31T16:21:37.337Z,14.30
2022-10-31T16:24:15.277Z,14.20
2022-10-31T16:26:42.691Z,14.20
2022-10-31T16:29:26.866Z,14.10
2022-10-31T16:31:53.598Z,14.00
2022-10-31T16:34:26.917Z,14.00
2022-10-31T16:36:54.349Z,13.80
2022-10-31T16:39:21.359Z,14.60
2022-10-31T16:41:52.723Z,13.70
2022-10-31T16:44:24.083Z,13.90
2022-10-31T16:47:14.986Z,13.50
2022-10-31T16:49:47.875Z,13.50
2022-10-31T16:52:14.598Z,13.50
2022-10-31T16:54:41.387Z,13.70
2022-10-31T16:57:15.797Z,13.70
2022-10-31T16:59:43.018Z,13.60
2022-10-31T17:02:16.711Z,14.40
2022-10-31T17:04:43.603Z,13.60
2022-10-31T17:07:10.358Z,13.20
2022-10-31T17:09:37.086Z,13.50
2022-10-31T17:12:06.703Z,13.40
2022-10-31T17:14:34.769Z,13.10
2022-10-31T17:17:01.572Z,13.20
2022-10-31T17:19:28.367Z,13.10
2022-10-31T17:21:55.149Z,13.10
2022-10-31T17:24:22.183Z,13.10
2022-10-31T17:26:49.123Z,12.70
2022-10-31T17:29:15.862Z,12.70
2022-10-31T17:31:42.593Z,12.80
2022-10-31T17:34:09.734Z,12.80
2022-10-31T17:36:36.566Z,13.00
2022-10-31T17:39:05.748Z,12.70
2022-10-31T17:41:32.491Z,12.40
2022-10-31T17:43:59.980Z,12.40
2022-10-31T17:46:28.379Z,12.50
2022-10-31T17:48:55.144Z,12.20
2022-10-31T17:51:21.877Z,12.60
2022-10-31T17:53:48.618Z,13.00
2022-10-31T17:56:15.409Z,12.20
2022-10-31T17:58:43.525Z,12.40
2022-10-31T18:01:13.074Z,12.10
2022-10-31T18:03:39.920Z,12.30
2022-10-31T18:06:07.677Z,12.10
2022-10-31T18:08:36.337Z,12.10
2022-10-31T18:11:19.688Z,12.00
2022-10-31T18:13:46.499Z,11.90
2022-10-31T18:16:15.997Z,12.00
2022-10-31T18:18:42.960Z,12.00
2022-10-31T18:21:09.930Z,11.90
2022-10-31T18:23:36.723Z,11.90
2022-10-31T18:26:03.709Z,11.90
2022-10-31T18:28:30.422Z,11.80
2022-10-31T18:31:00.565Z,11.80
2022-10-31T18:33:27.654Z,11.80
2022-10-31T18:35:54.346Z,11.80
2022-10-31T18:38:21.172Z,12.10
2022-10-31T18:40:48.172Z,11.90
2022-10-31T18:43:15.431Z,11.60
2022-10-31T18:45:46.881Z,11.70
2022-10-31T18:48:16.442Z,11.70
2022-10-31T18:50:43.794Z,11.50
2022-10-31T18:53:10.547Z,11.70
2022-10-31T18:55:45.354Z,11.40
2022-10-31T18:58:16.034Z,11.80
2022-10-31T19:00:42.859Z,11.10
2022-10-31T19:03:09.624Z,11.20
2022-10-31T19:05:36.318Z,10.70
2022-10-31T19:08:03.115Z,10.90
2022-10-31T19:10:30.572Z,10.90
2022-10-31T19:12:57.336Z,10.70
2022-10-31T19:15:24.023Z,10.70
2022-10-31T19:17:50.924Z,11.30
2022-10-31T19:20:17.950Z,10.80
2022-10-31T19:22:44.659Z,10.90
2022-10-31T19:25:11.468Z,10.70
2022-10-31T19:27:38.957Z,11.70
2022-10-31T19:30:06.876Z,10.80
2022-10-31T19:32:34.232Z,11.00
2022-10-31T19:35:01.047Z,11.20
2022-10-31T19:37:27.772Z,11.40
2022-10-31T19:39:54.534Z,11.30
2022-10-31T19:42:21.302Z,10.90
2022-10-31T19:44:48.078Z,10.90
2022-10-31T19:47:14.856Z,11.00
2022-10-31T19:49:41.561Z,10.90
2022-10-31T19:52:08.358Z,11.00
2022-10-31T19:54:35.163Z,11.10
2022-10-31T19:57:01.879Z,11.60
2022-10-31T19:59:28.810Z,11.20
2022-10-31T20:01:55.575Z,11.60
2022-10-31T20:04:24.912Z,11.20
2022-10-31T20:06:51.731Z,11.10
2022-10-31T20:09:18.663Z,11.20
2022-10-31T20:11:46.729Z,11.80
2022-10-31T20:14:15.537Z,11.20
2022-10-31T20:16:43.203Z,11.30
2022-10-31T20:19:10.031Z,11.30
2022-10-31T20:21:39.671Z,11.40
2022-10-31T20:24:09.088Z,11.50
2022-10-31T20:26:37.592Z,11.40
2022-10-31T20:29:04.617Z,11.50
2022-10-31T20:31:34.408Z,11.80
2022-10-31T20:34:01.427Z,11.50
2022-10-31T20:36:31.045Z,11.60
2022-10-31T20:38:58.706Z,11.50
2022-10-31T20:41:25.531Z,11.50
2022-10-31T20:43:52.597Z,11.60
2022-10-31T20:46:25.664Z,11.50
2022-10-31T20:48:53.511Z,11.50
2022-10-31T20:51:22.722Z,11.50
2022-10-31T20:53:51.301Z,11.40
2022-10-31T20:56:20.616Z,11.40
2022-10-31T20:58:47.812Z,11.30
2022-10-31T21:01:17.364Z,11.10
2022-10-31T21:03:44.677Z,11.60
2022-10-31T21:06:12.286Z,11.00
2022-10-31T21:08:39.763Z,11.20
2022-10-31T21:11:12.360Z,10.90
2022-10-31T21:13:41.383Z,10.80
2022-10-31T21:16:18.433Z,11.60
2022-10-31T21:18:46.087Z,11.00
2022-10-31T21:21:25.007Z,11.00
2022-10-31T21:23:57.687Z,11.10
2022-10-31T21:26:26.673Z,11.10
2022-10-31T21:28:55.685Z,11.70
2022-10-31T21:31:22.958Z,11.20
2022-10-31T21:33:50.096Z,11.20
2022-10-31T21:36:17.417Z,11.40
2022-10-31T21:38:44.541Z,11.30
2022-10-31T21:41:13.941Z,11.80
2022-10-31T21:43:43.592Z,12.10
2022-10-31T21:46:13.027Z,11.40
2022-10-31T21:48:42.293Z,11.80
2022-10-31T21:51:18.716Z,11.40
2022-10-31T21:54:04.440Z,11.40
2022-10-31T21:56:31.898Z,11.50
2022-10-31T21:58:58.665Z,11.50
2022-10-31T22:01:27.503Z,11.70
2022-10-31T22:03:54.576Z,11.50
2022-10-31T22:06:21.633Z,11.40
2022-10-31T22:08:48.677Z,11.70
2022-10-31T22:11:17.556Z,11.60
2022-10-31T22:13:47.496Z,11.10
2022-10-31T22:16:18.428Z,11.10
2022-10-31T22:18:45.593Z,11.00
2022-10-31T22:21:14.611Z,11.00
2022-10-31T22:23:42.171Z,11.20
2022-10-31T22:26:14.575Z,11.20
2022-10-31T22:28:46.277Z,11.70
2022-10-31T22:31:14.996Z,11.30
2022-10-31T22:33:41.865Z,11.20
2022-10-31T22:36:12.581Z,11.00
2022-10-31T22:38:40.405Z,10.90
2022-10-31T22:41:08.368Z,11.10
2022-10-31T22:43:35.277Z,11.10
2022-10-31T22:46:04.984Z,11.30
2022-10-31T22:48:35.769Z,11.10
2022-10-31T22:51:10.846Z,11.70
2022-10-31T22:53:38.447Z,11.00
2022-10-31T22:56:07.655Z,10.80
2022-10-31T22:58:34.947Z,10.90
2022-10-31T23:01:11.333Z,11.00
2022-10-31T23:03:38.302Z,10.90
2022-10-31T23:06:06.420Z,10.80
2022-10-31T23:08:36.006Z,10.90
2022-10-31T23:11:12.500Z,10.70
2022-10-31T23:13:58.014Z,10.80
2022-10-31T23:16:24.712Z,10.60
2022-10-31T23:18:51.507Z,10.60
2022-10-31T23:21:43.832Z,10.60
2022-10-31T23:24:11.840Z,10.60
2022-10-31T23:26:58.774Z,10.60
2022-10-31T23:29:25.520Z,10.60
2022-10-31T23:31:54.590Z,10.50
2022-10-31T23:34:24.470Z,10.40
2022-10-31T23:36:51.320Z,10.60
2022-10-31T23:39:21.192Z,10.40
2022-10-31T23:41:51.091Z,10.30
2022-10-31T23:44:17.972Z,10.80
2022-10-31T23:46:44.942Z,10.30
2022-10-31T23:49:11.744Z,10.50
2022-10-31T23:51:39.246Z,10.30
2022-10-31T23:54:06.196Z,10.40
2022-10-31T23:56:33.133Z,10.40
2022-10-31T23:58:59.812Z,10.40
